CheckWX is a tool to help pilots better visualize weather data.  It is not intended as a substitute for an official pre-flight weather briefing.

01:55:37 UTC

UKLI TAF
Ivano-Frankivsk International Airport
Ivano-Frankivsk, Ukraine
TAF UKLI 181701Z 1818/1903 30003MPS 9999 BKN030 TX06/1818Z TN02/1903Z TEMPO 1818/1903 2100 -SHRA BKN007 BKN010CB

Mar-18@
18:00 UTC

Mar-18 @ 18:00 UTC

Mar-19@
03:00 UTC

Mar-19 @ 03:00 UTC

TAF UKLI 181701Z 1818/1903 30003MPS 9999 BKN030 TX06/1818Z TN02/1903Z
Wind
  • 300° at 6 KTS
Cloud Levels
  • Broken at 3,000' AGL

Mar-18@
18:00 UTC

Mar-18 @ 18:00 UTC

Mar-19@
03:00 UTC

Mar-19 @ 03:00 UTC

TEMPO 1818/1903 2100 -SHRA BKN007 BKN010CB

Temporary

Temporary Changes expected for less than half the time period

Conditions
Light Rain
Cloud Levels
  • Broken at 700' AGL
  • Broken at 1,000' AGL